Time;durP1;ratioP1;P1;durP2;ratioP2;P2;SDS_P1;SDS_P2;PMS_P1;PMS_P2;Temp;Humidity;BMP_temperature;BMP_pressure;BME280_temperature;BME280_humidity;BME280_pressure;Samples;Min_cycle;Max_cycle;Signal;HPM_P1;HPM_P2
2023/05/11 00:02:09;;;;;;;1.20;0.70;;;;;;;20.70;100.00;96081.88;5007193;28;20077;-55
2023/05/11 00:04:37;;;;;;;1.95;0.68;;;;;;;20.57;100.00;96085.44;5001784;28;20069;-51
2023/05/11 00:07:06;;;;;;;1.98;0.80;;;;;;;20.62;100.00;96084.81;5004812;28;20069;-54
2023/05/11 00:09:37;;;;;;;0.90;0.60;;;;;;;20.42;100.00;96082.22;5004810;28;20081;-54
2023/05/11 00:12:06;;;;;;;1.77;0.55;;;;;;;20.06;100.00;96078.31;5001671;28;20184;-49
2023/05/11 00:14:34;;;;;;;6.93;1.38;;;;;;;19.93;100.00;96089.09;5008450;28;20074;-50
2023/05/11 00:17:03;;;;;;;0.90;0.70;;;;;;;20.84;100.00;96088.75;5007157;28;20093;-52
2023/05/11 00:19:31;;;;;;;1.17;0.85;;;;;;;20.93;100.00;96078.59;5007659;28;20084;-50
2023/05/11 00:22:00;;;;;;;1.88;0.80;;;;;;;20.89;100.00;96082.75;5003318;28;20092;-53
2023/05/11 00:24:29;;;;;;;0.82;0.75;;;;;;;20.59;100.00;96080.72;5007145;28;20082;-53
2023/05/11 00:26:58;;;;;;;2.47;0.90;;;;;;;21.12;100.00;96078.63;5006366;28;20096;-56
2023/05/11 00:29:27;;;;;;;4.00;0.67;;;;;;;21.01;100.00;96072.13;5002501;28;20088;-53
2023/05/11 00:31:55;;;;;;;2.38;0.73;;;;;;;21.66;89.13;96067.19;5001444;28;20081;-58
2023/05/11 00:34:23;;;;;;;0.98;0.65;;;;;;;22.03;83.79;96062.59;5003763;28;20089;-52
2023/05/11 00:36:52;;;;;;;1.30;0.70;;;;;;;21.22;90.73;96062.88;5005594;28;20085;-51
2023/05/11 00:39:20;;;;;;;0.98;0.68;;;;;;;21.36;95.22;96060.91;5004734;28;20073;-52
2023/05/11 00:41:48;;;;;;;0.93;0.70;;;;;;;20.86;100.00;96061.75;5006821;28;20078;-54
2023/05/11 00:44:18;;;;;;;1.17;0.70;;;;;;;22.05;89.18;96055.13;5005751;28;20475;-57
2023/05/11 00:46:46;;;;;;;1.73;1.00;;;;;;;21.59;86.48;96054.88;5004416;28;20096;-53
2023/05/11 00:49:16;;;;;;;2.55;1.00;;;;;;;22.15;87.02;96049.25;5004670;28;20084;-57
2023/05/11 00:51:44;;;;;;;1.35;0.70;;;;;;;22.16;83.58;96053.59;5006406;28;20108;-52
2023/05/11 00:54:14;;;;;;;3.28;1.00;;;;;;;21.68;90.08;96051.69;4999086;28;20112;-54
2023/05/11 00:56:42;;;;;;;1.45;0.60;;;;;;;21.61;89.42;96048.25;4999640;28;20089;-51
2023/05/11 00:59:12;;;;;;;0.98;0.60;;;;;;;20.58;100.00;96054.16;5005216;28;20078;-50
2023/05/11 01:01:42;;;;;;;3.10;0.87;;;;;;;21.59;93.97;96049.53;5001986;28;20077;-56
2023/05/11 01:04:10;;;;;;;1.90;0.70;;;;;;;21.20;97.47;96054.25;5002755;28;21131;-53
2023/05/11 01:06:45;;;;;;;0.60;0.60;;;;;;;20.95;100.00;96054.25;5003264;28;21055;-53
2023/05/11 01:09:24;;;;;;;2.08;0.80;;;;;;;20.82;100.00;96057.88;5003044;28;20086;-53
2023/05/11 01:11:58;;;;;;;1.38;0.60;;;;;;;21.59;95.07;96042.28;5006456;28;20128;-51
2023/05/11 01:14:30;;;;;;;0.77;0.60;;;;;;;20.94;100.00;96045.38;5001432;28;20560;-53
2023/05/11 01:17:03;;;;;;;1.60;0.75;;;;;;;21.21;100.00;96042.47;5001805;28;20081;-57
2023/05/11 01:19:41;;;;;;;1.25;0.88;;;;;;;21.15;99.89;96041.47;5002491;28;20069;-48
2023/05/11 01:22:18;;;;;;;1.20;0.68;;;;;;;21.48;95.49;96043.03;5004090;28;20648;-53
2023/05/11 01:24:58;;;;;;;1.63;0.75;;;;;;;21.51;95.63;96039.91;5005021;28;20085;-52
2023/05/11 01:27:44;;;;;;;11.85;5.60;;;;;;;22.41;82.81;96031.94;5003020;28;20556;-54
2023/05/11 01:30:26;;;;;;;1.20;0.70;;;;;;;21.80;89.63;96046.38;5001369;28;20081;-57
2023/05/11 01:32:55;;;;;;;1.00;0.70;;;;;;;21.49;90.04;96036.63;5003500;28;20085;-50
2023/05/11 01:35:25;;;;;;;2.88;1.52;;;;;;;21.21;98.74;96040.59;5001882;28;20730;-53
2023/05/11 01:37:57;;;;;;;3.65;1.23;;;;;;;21.66;92.80;96037.66;5003720;28;20092;-51
2023/05/11 01:40:28;;;;;;;4.18;1.50;;;;;;;21.27;96.82;96033.53;5001715;28;20112;-50
2023/05/11 01:43:01;;;;;;;2.45;0.80;;;;;;;22.27;83.06;96033.19;5002277;28;21020;-52
2023/05/11 01:45:34;;;;;;;4.32;1.65;;;;;;;20.55;100.00;96046.53;5004795;28;20092;-52
2023/05/11 01:48:05;;;;;;;2.00;0.95;;;;;;;21.82;88.36;96041.59;5005057;28;20081;-50
2023/05/11 01:50:34;;;;;;;1.05;0.68;;;;;;;21.83;86.00;96042.41;5000243;28;20104;-51
2023/05/11 01:53:03;;;;;;;3.33;0.80;;;;;;;21.93;84.56;96040.03;5003608;28;20486;-50
2023/05/11 01:55:34;;;;;;;5.18;2.25;;;;;;;21.88;89.06;96035.31;5004622;28;20113;-56
2023/05/11 01:58:04;;;;;;;1.85;0.80;;;;;;;21.72;83.15;96039.44;5003321;28;20082;-53
2023/05/11 02:00:34;;;;;;;2.75;1.30;;;;;;;21.89;90.42;96034.28;5003143;28;20679;-52
2023/05/11 02:03:05;;;;;;;1.55;1.00;;;;;;;21.42;92.75;96036.69;5002552;28;20552;-49
2023/05/11 02:05:34;;;;;;;4.65;2.00;;;;;;;21.40;89.89;96029.91;5003405;28;20093;-50
2023/05/11 02:08:04;;;;;;;2.75;1.00;;;;;;;21.97;84.14;96039.34;5006053;28;20482;-52
2023/05/11 02:10:34;;;;;;;2.63;1.05;;;;;;;22.16;76.73;96033.94;5002960;28;20101;-51
2023/05/11 02:13:04;;;;;;;2.07;0.90;;;;;;;22.42;76.79;96030.88;5004034;28;20564;-51
2023/05/11 02:15:35;;;;;;;3.08;1.00;;;;;;;21.86;82.93;96036.59;5002137;28;20081;-52
2023/05/11 02:18:05;;;;;;;1.63;0.70;;;;;;;22.14;84.24;96031.47;5003376;28;20089;-52
2023/05/11 02:20:33;;;;;;;1.08;0.90;;;;;;;21.93;81.89;96034.66;5004073;28;20088;-53
2023/05/11 02:23:02;;;;;;;1.92;1.20;;;;;;;21.43;94.41;96027.59;5002961;28;20096;-48
2023/05/11 02:25:31;;;;;;;1.73;1.20;;;;;;;21.69;85.44;96036.41;5001271;28;20085;-46
2023/05/11 02:28:00;;;;;;;2.55;1.45;;;;;;;21.03;93.99;96036.03;5007434;28;20086;-50
2023/05/11 02:30:29;;;;;;;2.22;1.10;;;;;;;20.90;97.03;96036.16;5008153;28;20077;-48
2023/05/11 02:33:05;;;;;;;2.50;1.10;;;;;;;21.72;88.54;96035.94;4993413;28;20085;-52
2023/05/11 02:35:38;;;;;;;2.33;1.63;;;;;;;21.59;89.87;96025.38;5006368;28;20078;-53
2023/05/11 02:38:07;;;;;;;2.55;0.80;;;;;;;21.94;84.04;96022.84;5002497;28;20086;-50
2023/05/11 02:40:39;;;;;;;2.10;0.88;;;;;;;21.79;87.15;96020.59;5011033;28;20073;-45
2023/05/11 02:43:09;;;;;;;2.55;0.98;;;;;;;22.12;82.13;96022.81;5006853;28;20083;-49
2023/05/11 02:45:39;;;;;;;2.03;0.73;;;;;;;21.27;89.60;96020.13;5011353;28;20077;-46
2023/05/11 02:48:12;;;;;;;4.15;1.15;;;;;;;21.86;82.98;96020.50;4994319;28;20073;-49
2023/05/11 02:50:42;;;;;;;1.52;0.85;;;;;;;22.03;85.12;96030.38;5006333;28;20066;-49
2023/05/11 02:53:14;;;;;;;1.77;0.80;;;;;;;21.68;90.18;96019.47;5009623;28;20085;-49
2023/05/11 02:55:43;;;;;;;2.97;1.58;;;;;;;21.79;89.33;96020.59;5003361;28;20081;-53
2023/05/11 02:58:11;;;;;;;1.55;1.15;;;;;;;21.29;92.77;96012.66;5011602;28;20551;-48
2023/05/11 03:00:39;;;;;;;1.10;0.60;;;;;;;20.60;98.63;96023.41;5003858;28;20073;-49
2023/05/11 03:03:09;;;;;;;2.08;1.02;;;;;;;20.56;100.00;96022.19;5009378;28;20600;-50
2023/05/11 03:05:37;;;;;;;4.63;2.60;;;;;;;19.47;100.00;96027.69;5002024;28;20104;-50
2023/05/11 03:08:06;;;;;;;5.93;2.70;;;;;;;20.10;100.00;96017.97;5009585;28;20591;-51
2023/05/11 03:10:35;;;;;;;11.57;5.30;;;;;;;20.70;100.00;96009.50;5008975;28;20061;-49
2023/05/11 03:13:03;;;;;;;4.38;1.60;;;;;;;19.24;100.00;96018.31;5010188;28;20089;-56
2023/05/11 03:15:32;;;;;;;10.85;4.65;;;;;;;18.56;100.00;96015.88;5003378;28;20085;-56
2023/05/11 03:18:00;;;;;;;3.70;1.80;;;;;;;19.77;100.00;96011.97;5009691;28;20088;-49
2023/05/11 03:20:31;;;;;;;3.60;2.00;;;;;;;19.97;100.00;96017.22;5010892;28;20530;-51
2023/05/11 03:23:00;;;;;;;15.43;9.35;;;;;;;19.82;100.00;96009.44;5005045;28;20078;-53
2023/05/11 03:25:29;;;;;;;7.78;2.97;;;;;;;19.83;100.00;96013.78;5005998;28;20093;-52
2023/05/11 03:27:58;;;;;;;13.30;9.07;;;;;;;19.40;100.00;96011.66;5005816;28;20698;-53
2023/05/11 03:30:28;;;;;;;3.25;2.08;;;;;;;20.71;100.00;96008.47;5004077;28;20077;-51
2023/05/11 03:32:56;;;;;;;7.45;3.30;;;;;;;19.03;100.00;96016.69;5006489;28;20085;-50
2023/05/11 03:35:27;;;;;;;10.50;2.28;;;;;;;20.00;100.00;96011.44;5001036;28;20082;-57
2023/05/11 03:37:56;;;;;;;;;;;;;;;20.79;100.00;96007.38;5003043;28;20089;-52
2023/05/11 03:40:26;;;;;;;3.95;1.80;;;;;;;19.41;100.00;96007.97;5004701;28;19960;-49
2023/05/11 03:42:55;;;;;;;2.22;1.30;;;;;;;20.49;100.00;96009.88;5007145;28;20580;-49
2023/05/11 03:45:25;;;;;;;1.77;0.70;;;;;;;20.27;100.00;96009.41;5003554;28;20552;-54
2023/05/11 03:47:54;;;;;;;16.92;1.77;;;;;;;20.06;100.00;96005.19;5003518;28;20081;-50
2023/05/11 03:50:22;;;;;;;2.90;1.40;;;;;;;19.64;100.00;96004.81;4967389;28;1122779;-52
2023/05/11 03:52:51;;;;;;;4.93;1.85;;;;;;;19.10;100.00;96008.69;5006055;28;20505;-55
2023/05/11 03:55:21;;;;;;;17.02;13.98;;;;;;;19.87;100.00;96001.63;5008298;28;20136;-51
2023/05/11 03:57:50;;;;;;;42.95;28.80;;;;;;;19.75;100.00;95998.81;5002668;28;20093;-51
2023/05/11 04:00:19;;;;;;;35.08;23.35;;;;;;;19.64;100.00;96008.28;5007342;28;20088;-58
2023/05/11 04:02:47;;;;;;;13.10;7.90;;;;;;;19.68;100.00;96009.53;5007539;28;20089;-56
2023/05/11 04:05:17;;;;;;;20.55;13.43;;;;;;;19.19;100.00;96007.41;5003653;28;20092;-53
2023/05/11 04:07:45;;;;;;;20.63;13.43;;;;;;;19.57;100.00;95999.44;5002612;28;20611;-57
2023/05/11 04:10:13;;;;;;;7.25;3.13;;;;;;;20.12;100.00;95999.81;5008229;28;20073;-54
2023/05/11 04:12:43;;;;;;;15.13;6.13;;;;;;;20.88;100.00;95992.66;5004630;28;20078;-53
2023/05/11 04:15:12;;;;;;;5.73;4.87;;;;;;;20.58;100.00;95992.53;5008556;28;20093;-49
2023/05/11 04:17:40;;;;;;;1.30;0.98;;;;;;;20.15;100.00;95987.84;5006681;28;20104;-54
2023/05/11 04:20:09;;;;;;;2.15;1.17;;;;;;;20.72;100.00;95982.50;5010855;28;20086;-53
2023/05/11 04:22:37;;;;;;;2.55;1.48;;;;;;;19.45;100.00;95985.94;5007569;28;20478;-53
2023/05/11 04:25:06;;;;;;;1.95;0.95;;;;;;;19.84;100.00;95996.69;5009188;28;20061;-54
2023/05/11 04:27:35;;;;;;;2.83;1.52;;;;;;;20.28;100.00;95982.41;5002537;28;20065;-53
2023/05/11 04:30:05;;;;;;;5.65;1.50;;;;;;;19.66;100.00;95994.72;5003924;28;20528;-55
2023/05/11 04:32:34;;;;;;;1.92;1.02;;;;;;;20.12;100.00;95996.31;5000011;28;20457;-51
2023/05/11 04:35:02;;;;;;;1.98;1.15;;;;;;;19.92;100.00;95999.09;5006191;28;20077;-52
2023/05/11 04:37:33;;;;;;;0.95;0.70;;;;;;;20.10;100.00;95999.22;5010385;28;20077;-49
2023/05/11 04:40:19;;;;;;;1.70;0.80;;;;;;;20.82;100.00;95993.56;5014888;28;20406;-56
2023/05/11 04:42:57;;;;;;;4.43;1.23;;;;;;;20.41;100.00;95994.06;5013125;28;20042;-52
2023/05/11 04:45:27;;;;;;;4.18;1.85;;;;;;;20.67;100.00;95993.88;5007308;28;20054;-53
2023/05/11 04:47:57;;;;;;;3.58;0.88;;;;;;;20.77;99.23;95990.69;5007275;28;20050;-57
2023/05/11 04:50:27;;;;;;;1.95;0.98;;;;;;;21.08;95.72;96001.31;5012588;28;20042;-55
2023/05/11 04:52:55;;;;;;;8.45;5.35;;;;;;;19.67;100.00;96004.38;5010994;28;20122;-54
2023/05/11 04:55:24;;;;;;;4.60;2.85;;;;;;;20.20;100.00;96006.78;5011560;28;20085;-52
2023/05/11 04:57:52;;;;;;;4.35;1.88;;;;;;;21.05;93.55;96001.75;5005806;28;20081;-47
2023/05/11 05:00:21;;;;;;;3.80;2.90;;;;;;;20.69;100.00;96002.53;5013700;28;20077;-54
2023/05/11 05:02:51;;;;;;;4.45;2.15;;;;;;;21.60;90.46;96000.97;5010496;28;20526;-52
2023/05/11 05:05:20;;;;;;;2.37;1.03;;;;;;;20.48;96.11;96013.59;5002940;28;20482;-50
2023/05/11 05:07:48;;;;;;;2.90;1.27;;;;;;;21.26;92.78;96000.50;5008189;28;20496;-52
2023/05/11 05:10:16;;;;;;;0.85;0.47;;;;;;;21.77;84.10;96001.19;5007106;28;20089;-55
2023/05/11 05:12:45;;;;;;;1.55;0.80;;;;;;;20.78;93.11;96014.59;4996437;28;20089;-55
2023/05/11 05:15:14;;;;;;;1.73;1.10;;;;;;;20.85;97.32;96004.66;5003324;28;20084;-56
2023/05/11 05:17:43;;;;;;;0.95;0.55;;;;;;;22.39;78.55;96001.78;5009215;28;20077;-56
2023/05/11 05:20:12;;;;;;;1.35;0.70;;;;;;;21.10;94.89;96006.47;5010526;28;20140;-54
2023/05/11 05:22:41;;;;;;;1.98;0.60;;;;;;;21.33;94.48;96005.81;5006803;28;20474;-51
2023/05/11 05:25:10;;;;;;;1.63;0.73;;;;;;;20.50;100.00;96006.13;4996911;28;20089;-55
2023/05/11 05:27:39;;;;;;;2.25;0.98;;;;;;;20.63;100.00;96008.75;5000604;28;20085;-50
2023/05/11 05:30:08;;;;;;;2.58;0.85;;;;;;;21.08;96.26;96004.00;5009205;28;20077;-54
2023/05/11 05:32:36;;;;;;;0.75;0.57;;;;;;;21.30;93.81;96008.91;5004467;28;20097;-54
2023/05/11 05:35:05;;;;;;;10.23;6.05;;;;;;;21.80;92.84;96009.59;5007770;28;20089;-53
2023/05/11 05:37:36;;;;;;;0.90;0.68;;;;;;;21.36;94.38;96012.63;5006267;28;20084;-49
2023/05/11 05:40:04;;;;;;;;;;;;;;;23.36;75.26;96004.06;5009260;28;20081;-49
2023/05/11 05:42:33;;;;;;;1.83;0.80;;;;;;;20.45;99.42;96025.56;5003919;28;20342;-50
2023/05/11 05:45:01;;;;;;;13.02;7.85;;;;;;;20.78;99.67;96021.81;5009022;28;20082;-51
2023/05/11 05:47:29;;;;;;;6.20;4.63;;;;;;;21.12;92.59;96015.09;5007981;28;20713;-53
2023/05/11 05:49:57;;;;;;;3.15;1.52;;;;;;;21.21;92.98;96013.78;5006699;28;20088;-53
2023/05/11 05:52:26;;;;;;;2.78;1.40;;;;;;;21.89;86.72;96017.38;5007918;28;20092;-50
2023/05/11 05:54:56;;;;;;;1.73;1.30;;;;;;;21.83;92.05;96013.72;5010632;28;20085;-55
2023/05/11 05:57:25;;;;;;;4.35;1.55;;;;;;;19.51;100.00;96020.88;5013244;28;20513;-56
2023/05/11 05:59:53;;;;;;;4.00;2.35;;;;;;;19.87;100.00;96020.34;5007898;28;20069;-57
2023/05/11 06:02:22;;;;;;;1.88;0.70;;;;;;;21.22;96.96;96015.41;5000331;28;20081;-50
2023/05/11 06:04:50;;;;;;;8.20;3.00;;;;;;;21.26;92.52;96016.59;5003472;28;20552;-50
2023/05/11 06:07:19;;;;;;;4.70;1.83;;;;;;;20.60;100.00;96023.41;5007704;28;20073;-49
2023/05/11 06:09:47;;;;;;;4.43;1.88;;;;;;;20.73;99.68;96025.16;5005388;28;20736;-51
2023/05/11 06:12:17;;;;;;;3.63;1.48;;;;;;;21.39;97.64;96021.03;5007915;28;20081;-54
2023/05/11 06:14:45;;;;;;;5.97;2.23;;;;;;;20.44;96.56;96028.44;5011086;28;20082;-52
2023/05/11 06:17:13;;;;;;;3.13;0.82;;;;;;;20.68;98.73;96027.69;5007260;28;20882;-54
2023/05/11 06:19:42;;;;;;;10.40;6.43;;;;;;;19.70;100.00;96037.91;5003914;28;20088;-53
2023/05/11 06:22:10;;;;;;;6.38;3.35;;;;;;;20.07;100.00;96029.09;5002039;28;20073;-55
2023/05/11 06:24:39;;;;;;;5.72;1.90;;;;;;;20.29;100.00;96028.75;5005587;28;20077;-53
2023/05/11 06:27:07;;;;;;;13.68;7.28;;;;;;;19.65;100.00;96031.34;5007882;28;20077;-56
2023/05/11 06:29:37;;;;;;;6.45;3.45;;;;;;;21.51;94.62;96029.19;5001172;28;20085;-57
2023/05/11 06:32:06;;;;;;;3.42;1.25;;;;;;;21.62;89.50;96024.94;5002036;28;20077;-52
2023/05/11 06:34:34;;;;;;;3.47;1.45;;;;;;;20.30;98.83;96035.75;4997548;28;20074;-53
2023/05/11 06:37:03;;;;;;;6.68;3.17;;;;;;;20.57;91.75;96039.91;5001574;28;20088;-55
2023/05/11 06:39:31;;;;;;;20.92;15.38;;;;;;;19.69;100.00;96042.47;5008222;28;20136;-55
2023/05/11 06:41:59;;;;;;;8.10;3.85;;;;;;;21.11;91.47;96034.91;5007030;28;20471;-58
2023/05/11 06:44:33;;;;;;;11.07;6.72;;;;;;;20.25;100.00;96038.25;5002052;28;20451;-50
2023/05/11 06:47:20;;;;;;;37.63;29.65;;;;;;;20.38;100.00;96035.50;5001310;28;20057;-56
2023/05/11 06:49:48;;;;;;;42.60;26.50;;;;;;;20.21;100.00;96045.91;5007649;28;20078;-53
2023/05/11 06:52:16;;;;;;;16.45;12.82;;;;;;;21.17;92.08;96031.34;5008741;28;20488;-54
2023/05/11 06:54:45;;;;;;;35.60;23.83;;;;;;;20.33;99.84;96038.81;5000780;28;20073;-57
2023/05/11 06:57:13;;;;;;;19.08;11.57;;;;;;;20.52;99.96;96044.28;4987329;28;20426;-55
2023/05/11 06:59:42;;;;;;;8.65;4.72;;;;;;;20.77;93.44;96046.97;5005348;28;20552;-53
2023/05/11 07:02:11;;;;;;;7.20;3.65;;;;;;;21.82;88.84;96044.28;4998876;28;20062;-51
2023/05/11 07:04:40;;;;;;;32.42;17.25;;;;;;;22.01;91.65;96031.66;5006106;28;20068;-56
2023/05/11 07:07:10;;;;;;;4.80;1.92;;;;;;;21.86;79.75;96034.75;4995627;28;20085;-52
2023/05/11 07:09:38;;;;;;;12.43;6.63;;;;;;;21.10;90.00;96041.34;5007745;28;20081;-52
2023/05/11 07:12:09;;;;;;;7.38;2.95;;;;;;;21.63;84.70;96032.75;5002931;28;20069;-55
2023/05/11 07:14:37;;;;;;;8.77;4.93;;;;;;;20.05;96.20;96041.84;5008443;28;20069;-53
2023/05/11 07:17:06;;;;;;;9.73;8.13;;;;;;;21.18;95.68;96045.59;4999868;28;20073;-58
2023/05/11 07:19:34;;;;;;;10.60;4.45;;;;;;;21.36;86.01;96036.75;5007805;28;20537;-53
2023/05/11 07:22:04;;;;;;;14.73;10.45;;;;;;;21.29;98.73;96031.44;5007172;28;20084;-55
2023/05/11 07:24:33;;;;;;;8.25;4.03;;;;;;;20.50;88.43;96044.50;5006763;28;20082;-56
2023/05/11 07:27:01;;;;;;;63.55;40.58;;;;;;;19.96;100.00;96043.16;5007579;28;20132;-57
2023/05/11 07:29:29;;;;;;;11.93;9.05;;;;;;;21.68;84.34;96038.25;5002293;28;20061;-53
2023/05/11 07:31:57;;;;;;;15.68;7.35;;;;;;;21.16;92.22;96035.06;5009950;28;20450;-53
2023/05/11 07:34:26;;;;;;;6.40;3.42;;;;;;;21.86;83.32;96029.38;5006521;28;20078;-55
2023/05/11 07:36:54;;;;;;;17.17;9.25;;;;;;;20.90;87.95;96041.50;5005692;28;20097;-53
2023/05/11 07:39:24;;;;;;;9.07;5.00;;;;;;;21.89;87.96;96030.78;5004670;28;20077;-54
2023/05/11 07:41:52;;;;;;;10.15;8.43;;;;;;;20.66;89.71;96031.63;5000650;28;20713;-54
2023/05/11 07:44:21;;;;;;;47.35;30.63;;;;;;;20.88;98.02;96034.72;5002225;28;20058;-55
2023/05/11 07:46:49;;;;;;;30.10;21.95;;;;;;;20.97;95.85;96036.09;5006734;28;20081;-54
2023/05/11 07:49:17;;;;;;;11.50;6.78;;;;;;;22.07;82.89;96032.63;4993045;28;20065;-53
2023/05/11 07:52:02;;;;;;;14.98;8.43;;;;;;;20.76;97.08;96040.81;5010638;28;20221;-50
2023/05/11 07:54:32;;;;;;;10.43;5.78;;;;;;;22.13;86.42;96035.22;5006469;28;20065;-52
2023/05/11 07:57:01;;;;;;;18.33;11.73;;;;;;;20.06;100.00;96032.81;5002159;28;20182;-54
2023/05/11 07:59:29;;;;;;;12.15;10.45;;;;;;;21.35;88.92;96035.13;5006953;28;20508;-54
2023/05/11 08:01:57;;;;;;;32.13;21.23;;;;;;;21.40;88.93;96033.41;5016228;28;20486;-55
2023/05/11 08:04:27;;;;;;;10.65;7.43;;;;;;;21.69;87.03;96033.72;5004353;28;20078;-55
2023/05/11 08:09:17;;;;;;;1.00;0.45;;;;;;;22.00;83.33;96032.69;5143125;27;20615;-51
2023/05/11 08:11:45;;;;;;;0.80;0.50;;;;;;;23.07;77.86;96027.38;5132326;27;20097;-53
2023/05/11 08:14:14;;;;;;;1.02;0.52;;;;;;;22.80;76.55;96026.16;5132338;27;20081;-51
2023/05/11 08:16:43;;;;;;;3.22;0.60;;;;;;;22.32;80.50;96027.94;5141871;27;20454;-50
2023/05/11 08:19:12;;;;;;;1.00;0.35;;;;;;;21.47;85.50;96034.19;5137618;27;20078;-54
2023/05/11 08:21:41;;;;;;;0.50;0.30;;;;;;;21.39;92.07;96021.03;5111617;27;20046;-53
2023/05/11 08:24:09;;;;;;;3.15;0.47;;;;;;;21.66;90.97;96034.16;5129832;27;20073;-53
2023/05/11 08:26:39;;;;;;;0.60;0.40;;;;;;;21.06;88.47;96030.22;5134389;27;20458;-53
2023/05/11 08:29:07;;;;;;;0.63;0.47;;;;;;;22.15;84.20;96035.81;5129794;27;20093;-49
2023/05/11 08:31:35;;;;;;;0.80;0.30;;;;;;;21.93;82.09;96031.97;5131094;27;20070;-54
2023/05/11 08:34:04;;;;;;;1.42;0.32;;;;;;;22.10;80.96;96032.97;5129631;27;20074;-47
2023/05/11 08:36:45;;;;;;;0.82;0.40;;;;;;;21.68;84.35;96030.22;5135258;27;20086;-52
2023/05/11 08:39:17;;;;;;;0.75;0.40;;;;;;;21.54;91.79;96032.22;5127907;27;20102;-53
2023/05/11 08:42:06;;;;;;;0.60;0.43;;;;;;;21.97;82.18;96036.66;5133799;27;20081;-51
2023/05/11 08:44:36;;;;;;;82.57;54.58;;;;;;;20.41;100.00;96028.91;5128527;27;20079;-50
2023/05/11 08:47:05;;;;;;;20.25;11.77;;;;;;;21.66;86.55;96029.59;5134117;27;20054;-50
2023/05/11 08:49:51;;;;;;;0.75;0.40;;;;;;;22.36;82.01;96022.91;5133536;27;20082;-47
2023/05/11 08:52:19;;;;;;;1.40;0.60;;;;;;;22.70;75.90;96026.72;5134054;27;20561;-52
2023/05/11 08:54:48;;;;;;;0.80;0.30;;;;;;;22.05;85.86;96024.78;5127087;27;20086;-52
2023/05/11 08:57:17;;;;;;;0.22;0.20;;;;;;;21.29;88.01;96024.19;5135031;27;20086;-51
2023/05/11 08:59:46;;;;;;;1.77;0.35;;;;;;;22.25;81.70;96030.72;5137427;27;20079;-51
2023/05/11 09:02:17;;;;;;;0.50;0.40;;;;;;;22.59;77.57;96024.84;5122029;27;20066;-51
2023/05/11 09:04:46;;;;;;;1.38;0.40;;;;;;;22.63;76.41;96023.34;5138130;27;20075;-53
2023/05/11 09:07:17;;;;;;;0.40;0.30;;;;;;;22.86;78.31;96018.00;5121750;27;20714;-52
2023/05/11 09:09:46;;;;;;;0.65;0.40;;;;;;;23.21;74.83;96023.41;5138696;27;20077;-51
2023/05/11 09:12:14;;;;;;;1.45;0.47;;;;;;;23.45;72.14;96018.81;5127161;27;20075;-50
2023/05/11 09:14:45;;;;;;;0.65;0.40;;;;;;;22.90;76.12;96021.03;5140637;27;20078;-47
2023/05/11 09:17:14;;;;;;;0.85;0.50;;;;;;;24.15;70.90;96017.00;5127559;27;20487;-49
2023/05/11 09:19:59;;;;;;;0.70;0.50;;;;;;;24.77;64.67;96016.19;5126131;27;20072;-49
2023/05/11 09:22:28;;;;;;;0.40;0.30;;;;;;;24.02;67.99;96019.97;5121099;27;20081;-51
2023/05/11 09:25:00;;;;;;;1.10;0.50;;;;;;;24.51;65.90;96020.38;5122120;27;20082;-49
2023/05/11 09:27:28;;;;;;;1.85;0.40;;;;;;;24.37;64.89;96019.81;5125373;27;20082;-54
2023/05/11 09:30:10;;;;;;;1.55;0.40;;;;;;;23.62;70.01;96016.19;5114954;27;20518;-52
2023/05/11 09:32:47;;;;;;;0.70;0.40;;;;;;;22.83;74.48;96017.63;5125269;27;20089;-48
2023/05/11 09:35:20;;;;;;;1.85;0.50;;;;;;;24.55;65.33;96016.13;5109171;27;20078;-54
2023/05/11 09:37:59;;;;;;;0.65;0.40;;;;;;;24.56;63.19;96010.47;5117933;27;20090;-54
2023/05/11 09:40:29;;;;;;;1.08;0.40;;;;;;;23.01;72.72;96014.06;5119088;27;20737;-50
2023/05/11 09:43:02;;;;;;;0.93;0.35;;;;;;;22.09;78.36;96025.13;5121528;27;20075;-48
2023/05/11 09:45:42;;;;;;;1.25;0.40;;;;;;;22.95;73.00;96013.09;5114758;27;20114;-52
2023/05/11 09:48:23;;;;;;;0.35;0.32;;;;;;;22.75;73.21;96016.13;5106588;27;20094;-51
2023/05/11 09:50:59;;;;;;;0.85;0.38;;;;;;;22.82;72.82;96013.31;5118524;27;20090;-54
2023/05/11 09:53:41;;;;;;;0.90;0.40;;;;;;;23.45;72.27;96009.91;5117620;27;20090;-56
2023/05/11 09:56:11;;;;;;;0.40;0.40;;;;;;;22.92;69.95;96011.72;5121468;27;20153;-55
2023/05/11 09:58:47;;;;;;;1.90;0.40;;;;;;;23.03;71.62;96012.78;5112682;27;20087;-48
2023/05/11 10:01:17;;;;;;;1.50;0.50;;;;;;;23.81;67.21;96016.06;5111236;27;20604;-48
2023/05/11 10:03:47;;;;;;;0.60;0.50;;;;;;;23.69;67.64;96011.53;5119896;27;20079;-53
2023/05/11 10:06:16;;;;;;;0.55;0.30;;;;;;;23.51;68.79;96016.25;5109181;27;20047;-52
2023/05/11 10:08:47;;;;;;;0.30;0.30;;;;;;;22.78;73.20;96015.66;5113338;27;20074;-50
2023/05/11 10:11:16;;;;;;;1.90;0.50;;;;;;;23.62;68.45;96015.38;5113509;27;20119;-57
2023/05/11 10:13:45;;;;;;;0.40;0.40;;;;;;;23.84;66.59;96018.28;5112884;27;20192;-55
2023/05/11 10:16:18;;;;;;;1.40;0.50;;;;;;;23.45;64.07;96020.69;5115321;27;20170;-51
2023/05/11 10:18:47;;;;;;;0.43;0.40;;;;;;;23.75;66.89;96020.53;5118179;27;20083;-54
2023/05/11 10:21:16;;;;;;;0.43;0.40;;;;;;;23.54;66.54;96021.16;5099520;27;20450;-57
2023/05/11 10:23:45;;;;;;;0.32;0.32;;;;;;;23.45;67.12;96024.19;5123536;27;20071;-50
2023/05/11 10:26:14;;;;;;;1.67;0.30;;;;;;;24.37;61.48;96020.66;5116953;27;20083;-46
2023/05/11 10:28:42;;;;;;;0.30;0.30;;;;;;;23.85;63.02;96014.53;5109817;27;20086;-49
2023/05/11 10:31:11;;;;;;;3.03;0.30;;;;;;;23.36;66.50;96016.72;5118349;27;20086;-53
2023/05/11 10:33:41;;;;;;;1.13;0.45;;;;;;;22.86;68.80;96020.69;5115916;27;20082;-56
2023/05/11 10:36:11;;;;;;;0.63;0.43;;;;;;;22.65;75.30;96021.25;5122952;27;20082;-50
2023/05/11 10:38:46;;;;;;;0.20;0.20;;;;;;;22.98;72.30;96012.63;5113658;27;20171;-54
2023/05/11 10:41:25;;;;;;;0.47;0.40;;;;;;;23.55;71.96;96012.84;5114321;27;20094;-56
2023/05/11 10:44:19;;;;;;;1.77;0.40;;;;;;;23.63;73.31;96007.06;5121700;27;20089;-48
2023/05/11 10:47:01;;;;;;;0.63;0.30;;;;;;;22.38;79.21;96015.47;5106401;27;20120;-49
2023/05/11 10:49:48;;;;;;;0.50;0.28;;;;;;;24.23;66.02;96008.53;5124706;27;20070;-53
2023/05/11 10:52:36;;;;;;;0.45;0.20;;;;;;;23.84;67.14;96002.13;5115665;27;20087;-52
2023/05/11 10:55:10;;;;;;;1.40;0.30;;;;;;;24.56;64.75;96001.56;5121263;27;20466;-51
2023/05/11 10:57:55;;;;;;;0.47;0.20;;;;;;;24.40;60.66;96008.59;5117540;27;20101;-48
2023/05/11 11:01:02;;;;;;;0.30;0.30;;;;;;;24.84;57.04;96001.50;5111376;27;20075;-51
2023/05/11 11:03:31;;;;;;;0.60;0.30;;;;;;;23.82;63.83;96005.06;5116858;27;20126;-50
2023/05/11 11:06:01;;;;;;;0.30;0.20;;;;;;;25.16;58.85;96008.22;5113808;27;20075;-56
2023/05/11 11:08:29;;;;;;;2.85;0.68;;;;;;;25.27;57.29;96002.69;5115534;27;20079;-54
2023/05/11 11:10:57;;;;;;;0.30;0.30;;;;;;;24.05;59.33;96009.53;5118809;27;20074;-52
2023/05/11 11:13:26;;;;;;;1.48;0.50;;;;;;;25.25;56.54;96001.31;5113105;27;20079;-51
2023/05/11 11:16:13;;;;;;;0.98;0.40;;;;;;;24.79;55.29;96011.41;5119676;27;20090;-53
2023/05/11 11:18:44;;;;;;;0.93;0.40;;;;;;;24.44;58.91;96009.75;5108077;27;20075;-53
2023/05/11 11:21:40;;;;;;;0.65;0.40;;;;;;;24.61;60.07;95999.78;5123490;27;20075;-52
2023/05/11 11:24:08;;;;;;;0.52;0.30;;;;;;;23.74;60.94;96010.81;5117671;27;20078;-52
2023/05/11 11:26:47;;;;;;;1.75;0.40;;;;;;;24.25;59.16;96006.41;5114259;27;20134;-56
2023/05/11 11:29:15;;;;;;;3.50;1.30;;;;;;;23.74;61.90;96012.69;5111777;27;20079;-56
2023/05/11 11:31:44;;;;;;;0.30;0.30;;;;;;;24.82;58.46;96008.22;5120509;27;20086;-52
2023/05/11 11:34:35;;;;;;;1.58;0.38;;;;;;;24.62;58.03;96003.28;5114591;27;20078;-50
2023/05/11 11:37:07;;;;;;;1.05;0.32;;;;;;;24.02;62.43;96006.50;5121812;27;20478;-56
2023/05/11 11:39:59;;;;;;;1.30;0.40;;;;;;;24.47;62.42;96003.06;5119149;27;20079;-52
2023/05/11 11:42:43;;;;;;;0.82;0.40;;;;;;;23.81;64.46;96005.28;5107745;27;20083;-54
2023/05/11 11:45:49;;;;;;;1.25;0.47;;;;;;;25.47;59.16;95998.66;5117725;27;20087;-52
2023/05/11 11:48:21;;;;;;;0.32;0.30;;;;;;;23.52;69.87;96004.41;5108738;27;20102;-53
2023/05/11 11:51:01;;;;;;;0.40;0.40;;;;;;;24.52;63.46;96006.63;5112003;27;20523;-54